sensor_id;sensor_type;location;lat;lon;timestamp;pressure;altitude;pressure_sealevel;temperature;humidity
71573;BME280;59408;51.032;9.410;2022-12-17T00:00:32;99593.94;;;-12.32;100.00
71573;BME280;59408;51.032;9.410;2022-12-17T00:02:59;99593.88;;;-12.24;100.00
71573;BME280;59408;51.032;9.410;2022-12-17T00:05:26;99595.59;;;-12.16;100.00
71573;BME280;59408;51.032;9.410;2022-12-17T00:07:58;99597.81;;;-12.05;100.00
71573;BME280;59408;51.032;9.410;2022-12-17T00:10:24;99603.16;;;-11.99;100.00
71573;BME280;59408;51.032;9.410;2022-12-17T00:12:51;99602.06;;;-11.89;100.00
71573;BME280;59408;51.032;9.410;2022-12-17T00:15:23;99605.44;;;-11.81;100.00
71573;BME280;59408;51.032;9.410;2022-12-17T00:17:49;99607.16;;;-11.73;100.00
71573;BME280;59408;51.032;9.410;2022-12-17T00:20:17;99611.31;;;-11.64;100.00
71573;BME280;59408;51.032;9.410;2022-12-17T00:22:43;99618.69;;;-11.60;100.00
71573;BME280;59408;51.032;9.410;2022-12-17T00:25:11;99621.56;;;-11.54;100.00
71573;BME280;59408;51.032;9.410;2022-12-17T00:27:38;99622.03;;;-11.51;100.00
71573;BME280;59408;51.032;9.410;2022-12-17T00:30:06;99630.00;;;-11.44;100.00
71573;BME280;59408;51.032;9.410;2022-12-17T00:32:32;99632.28;;;-11.41;100.00
71573;BME280;59408;51.032;9.410;2022-12-17T00:34:59;99624.03;;;-11.38;100.00
71573;BME280;59408;51.032;9.410;2022-12-17T00:37:25;99626.91;;;-11.33;100.00
71573;BME280;59408;51.032;9.410;2022-12-17T00:39:52;99634.25;;;-11.29;100.00
71573;BME280;59408;51.032;9.410;2022-12-17T00:42:26;99640.97;;;-11.26;100.00
71573;BME280;59408;51.032;9.410;2022-12-17T00:44:52;99635.34;;;-11.23;100.00
71573;BME280;59408;51.032;9.410;2022-12-17T00:47:19;99643.88;;;-11.21;100.00
71573;BME280;59408;51.032;9.410;2022-12-17T00:49:45;99646.94;;;-11.17;100.00
71573;BME280;59408;51.032;9.410;2022-12-17T00:52:12;99656.75;;;-11.11;100.00
71573;BME280;59408;51.032;9.410;2022-12-17T00:54:38;99651.72;;;-11.06;100.00
71573;BME280;59408;51.032;9.410;2022-12-17T00:57:05;99657.69;;;-10.98;100.00
71573;BME280;59408;51.032;9.410;2022-12-17T00:59:33;99653.69;;;-10.94;100.00
71573;BME280;59408;51.032;9.410;2022-12-17T01:02:00;99653.31;;;-10.91;100.00
71573;BME280;59408;51.032;9.410;2022-12-17T01:04:27;99652.94;;;-10.88;100.00
71573;BME280;59408;51.032;9.410;2022-12-17T01:06:53;99644.69;;;-10.85;100.00
71573;BME280;59408;51.032;9.410;2022-12-17T01:09:21;99648.56;;;-10.80;100.00
71573;BME280;59408;51.032;9.410;2022-12-17T01:11:48;99648.22;;;-10.77;100.00
71573;BME280;59408;51.032;9.410;2022-12-17T01:14:15;99651.25;;;-10.74;100.00
71573;BME280;59408;51.032;9.410;2022-12-17T01:16:43;99658.16;;;-10.73;100.00
71573;BME280;59408;51.032;9.410;2022-12-17T01:19:09;99657.16;;;-10.72;100.00
71573;BME280;59408;51.032;9.410;2022-12-17T01:21:36;99663.72;;;-10.68;100.00
71573;BME280;59408;51.032;9.410;2022-12-17T01:24:03;99659.25;;;-10.67;100.00
71573;BME280;59408;51.032;9.410;2022-12-17T01:26:30;99662.72;;;-10.67;100.00
71573;BME280;59408;51.032;9.410;2022-12-17T01:28:57;99664.34;;;-10.66;100.00
71573;BME280;59408;51.032;9.410;2022-12-17T01:31:24;99668.59;;;-10.65;100.00
71573;BME280;59408;51.032;9.410;2022-12-17T01:33:57;99665.59;;;-10.62;100.00
71573;BME280;59408;51.032;9.410;2022-12-17T01:36:23;99673.13;;;-10.59;100.00
71573;BME280;59408;51.032;9.410;2022-12-17T01:38:50;99674.38;;;-10.55;100.00
71573;BME280;59408;51.032;9.410;2022-12-17T01:41:17;99677.47;;;-10.51;100.00
71573;BME280;59408;51.032;9.410;2022-12-17T01:43:44;99682.56;;;-10.50;100.00
71573;BME280;59408;51.032;9.410;2022-12-17T01:46:11;99681.75;;;-10.50;100.00
71573;BME280;59408;51.032;9.410;2022-12-17T01:48:40;99693.75;;;-10.48;100.00
71573;BME280;59408;51.032;9.410;2022-12-17T01:51:09;99697.19;;;-10.47;100.00
71573;BME280;59408;51.032;9.410;2022-12-17T01:53:40;99693.53;;;-10.46;100.00
71573;BME280;59408;51.032;9.410;2022-12-17T01:56:08;99698.78;;;-10.46;100.00
71573;BME280;59408;51.032;9.410;2022-12-17T01:58:35;99702.06;;;-10.44;100.00
71573;BME280;59408;51.032;9.410;2022-12-17T02:01:02;99701.25;;;-10.45;100.00
71573;BME280;59408;51.032;9.410;2022-12-17T02:03:29;99702.53;;;-10.40;100.00
71573;BME280;59408;51.032;9.410;2022-12-17T02:06:00;99699.88;;;-10.40;100.00
71573;BME280;59408;51.032;9.410;2022-12-17T02:08:37;99703.56;;;-10.35;100.00
71573;BME280;59408;51.032;9.410;2022-12-17T02:11:14;99703.75;;;-10.36;100.00
71573;BME280;59408;51.032;9.410;2022-12-17T02:13:51;99709.50;;;-10.33;100.00
71573;BME280;59408;51.032;9.410;2022-12-17T02:16:24;99709.50;;;-10.33;100.00
71573;BME280;59408;51.032;9.410;2022-12-17T02:18:56;99702.41;;;-10.32;100.00
71573;BME280;59408;51.032;9.410;2022-12-17T02:21:25;99705.41;;;-10.35;100.00
71573;BME280;59408;51.032;9.410;2022-12-17T02:23:58;99702.75;;;-10.35;100.00
71573;BME280;59408;51.032;9.410;2022-12-17T02:26:35;99707.22;;;-10.36;100.00
71573;BME280;59408;51.032;9.410;2022-12-17T02:29:03;99707.84;;;-10.34;100.00
71573;BME280;59408;51.032;9.410;2022-12-17T02:31:32;99711.13;;;-10.32;100.00
71573;BME280;59408;51.032;9.410;2022-12-17T02:34:00;99705.50;;;-10.29;100.00
71573;BME280;59408;51.032;9.410;2022-12-17T02:36:27;99706.09;;;-10.27;100.00
71573;BME280;59408;51.032;9.410;2022-12-17T02:38:53;99712.63;;;-10.23;100.00
71573;BME280;59408;51.032;9.410;2022-12-17T02:41:26;99705.34;;;-10.21;100.00
71573;BME280;59408;51.032;9.410;2022-12-17T02:43:56;99705.78;;;-10.17;100.00
71573;BME280;59408;51.032;9.410;2022-12-17T02:46:24;99709.88;;;-10.15;100.00
71573;BME280;59408;51.032;9.410;2022-12-17T02:48:51;99704.41;;;-10.13;100.00
71573;BME280;59408;51.032;9.410;2022-12-17T02:51:19;99712.97;;;-10.11;100.00
71573;BME280;59408;51.032;9.410;2022-12-17T02:53:52;99713.19;;;-10.06;100.00
71573;BME280;59408;51.032;9.410;2022-12-17T02:56:19;99712.00;;;-10.03;100.00
71573;BME280;59408;51.032;9.410;2022-12-17T02:58:45;99713.25;;;-9.99;100.00
71573;BME280;59408;51.032;9.410;2022-12-17T03:01:14;99711.69;;;-9.94;100.00
71573;BME280;59408;51.032;9.410;2022-12-17T03:03:41;99708.47;;;-9.89;100.00
71573;BME280;59408;51.032;9.410;2022-12-17T03:06:15;99718.66;;;-9.86;100.00
71573;BME280;59408;51.032;9.410;2022-12-17T03:08:41;99723.97;;;-9.80;100.00
71573;BME280;59408;51.032;9.410;2022-12-17T03:11:08;99719.50;;;-9.79;100.00
71573;BME280;59408;51.032;9.410;2022-12-17T03:13:35;99722.78;;;-9.77;100.00
71573;BME280;59408;51.032;9.410;2022-12-17T03:16:07;99713.47;;;-9.73;100.00
71573;BME280;59408;51.032;9.410;2022-12-17T03:18:35;99716.91;;;-9.73;100.00
71573;BME280;59408;51.032;9.410;2022-12-17T03:21:01;99732.38;;;-9.70;100.00
71573;BME280;59408;51.032;9.410;2022-12-17T03:23:28;99723.28;;;-9.67;100.00
71573;BME280;59408;51.032;9.410;2022-12-17T03:25:57;99734.66;;;-9.66;100.00
71573;BME280;59408;51.032;9.410;2022-12-17T03:28:24;99731.81;;;-9.65;100.00
71573;BME280;59408;51.032;9.410;2022-12-17T03:30:51;99734.06;;;-9.62;100.00
71573;BME280;59408;51.032;9.410;2022-12-17T03:33:17;99731.88;;;-9.58;100.00
71573;BME280;59408;51.032;9.410;2022-12-17T03:35:45;99734.56;;;-9.52;100.00
71573;BME280;59408;51.032;9.410;2022-12-17T03:38:12;99741.28;;;-9.49;100.00
71573;BME280;59408;51.032;9.410;2022-12-17T03:40:39;99733.78;;;-9.46;100.00
71573;BME280;59408;51.032;9.410;2022-12-17T03:43:06;99728.75;;;-9.41;100.00
71573;BME280;59408;51.032;9.410;2022-12-17T03:45:32;99728.75;;;-9.41;100.00
71573;BME280;59408;51.032;9.410;2022-12-17T03:48:04;99737.06;;;-9.37;100.00
71573;BME280;59408;51.032;9.410;2022-12-17T03:50:30;99732.84;;;-9.38;100.00
71573;BME280;59408;51.032;9.410;2022-12-17T03:53:00;99732.84;;;-9.38;100.00
71573;BME280;59408;51.032;9.410;2022-12-17T03:55:27;99740.75;;;-9.38;100.00
71573;BME280;59408;51.032;9.410;2022-12-17T03:57:54;99741.16;;;-9.35;100.00
71573;BME280;59408;51.032;9.410;2022-12-17T04:00:20;99747.06;;;-9.33;100.00
71573;BME280;59408;51.032;9.410;2022-12-17T04:02:47;99752.19;;;-9.31;100.00
71573;BME280;59408;51.032;9.410;2022-12-17T04:05:14;99755.19;;;-9.27;100.00
71573;BME280;59408;51.032;9.410;2022-12-17T04:07:46;99757.66;;;-9.26;100.00
71573;BME280;59408;51.032;9.410;2022-12-17T04:10:14;99762.94;;;-9.26;100.00
71573;BME280;59408;51.032;9.410;2022-12-17T04:12:40;99757.28;;;-9.23;100.00
71573;BME280;59408;51.032;9.410;2022-12-17T04:15:08;99760.97;;;-9.17;100.00
71573;BME280;59408;51.032;9.410;2022-12-17T04:17:34;99763.41;;;-9.16;100.00
71573;BME280;59408;51.032;9.410;2022-12-17T04:20:01;99756.50;;;-9.17;100.00
71573;BME280;59408;51.032;9.410;2022-12-17T04:22:27;99761.78;;;-9.17;100.00
71573;BME280;59408;51.032;9.410;2022-12-17T04:24:54;99757.94;;;-9.14;100.00
71573;BME280;59408;51.032;9.410;2022-12-17T04:27:22;99755.94;;;-9.12;100.00
71573;BME280;59408;51.032;9.410;2022-12-17T04:29:48;99763.44;;;-9.09;100.00
71573;BME280;59408;51.032;9.410;2022-12-17T04:32:15;99765.06;;;-9.08;100.00
71573;BME280;59408;51.032;9.410;2022-12-17T04:34:42;99760.41;;;-9.06;100.00
71573;BME280;59408;51.032;9.410;2022-12-17T04:37:08;99764.31;;;-9.02;100.00
71573;BME280;59408;51.032;9.410;2022-12-17T04:39:35;99759.44;;;-8.99;100.00
71573;BME280;59408;51.032;9.410;2022-12-17T04:42:02;99762.09;;;-8.99;100.00
71573;BME280;59408;51.032;9.410;2022-12-17T04:44:30;99757.63;;;-8.98;100.00
71573;BME280;59408;51.032;9.410;2022-12-17T04:46:56;99764.53;;;-8.97;100.00
71573;BME280;59408;51.032;9.410;2022-12-17T04:49:23;99766.00;;;-8.95;100.00
71573;BME280;59408;51.032;9.410;2022-12-17T04:51:50;99771.91;;;-8.93;100.00
71573;BME280;59408;51.032;9.410;2022-12-17T04:54:16;99776.97;;;-8.91;100.00
71573;BME280;59408;51.032;9.410;2022-12-17T04:56:43;99774.75;;;-8.87;100.00
71573;BME280;59408;51.032;9.410;2022-12-17T04:59:10;99775.19;;;-8.84;100.00
71573;BME280;59408;51.032;9.410;2022-12-17T05:01:38;99782.72;;;-8.81;100.00
71573;BME280;59408;51.032;9.410;2022-12-17T05:04:05;99783.53;;;-8.80;100.00
71573;BME280;59408;51.032;9.410;2022-12-17T05:06:32;99788.25;;;-8.76;100.00
71573;BME280;59408;51.032;9.410;2022-12-17T05:08:58;99782.78;;;-8.74;100.00
71573;BME280;59408;51.032;9.410;2022-12-17T05:11:25;99787.84;;;-8.73;100.00
71573;BME280;59408;51.032;9.410;2022-12-17T05:13:51;99791.13;;;-8.71;100.00
71573;BME280;59408;51.032;9.410;2022-12-17T05:16:18;99798.41;;;-8.73;100.00
71573;BME280;59408;51.032;9.410;2022-12-17T05:18:46;99798.19;;;-8.78;100.00
71573;BME280;59408;51.032;9.410;2022-12-17T05:21:13;99803.47;;;-8.78;100.00
71573;BME280;59408;51.032;9.410;2022-12-17T05:23:39;99808.16;;;-8.73;100.00
71573;BME280;59408;51.032;9.410;2022-12-17T05:26:10;99811.84;;;-8.74;100.00
71573;BME280;59408;51.032;9.410;2022-12-17T05:28:38;99818.97;;;-8.75;100.00
71573;BME280;59408;51.032;9.410;2022-12-17T05:31:05;99826.47;;;-8.78;100.00
71573;BME280;59408;51.032;9.410;2022-12-17T05:33:32;99830.72;;;-8.77;100.00
71573;BME280;59408;51.032;9.410;2022-12-17T05:36:00;99835.00;;;-8.76;100.00
71573;BME280;59408;51.032;9.410;2022-12-17T05:38:27;99839.06;;;-8.74;100.00
71573;BME280;59408;51.032;9.410;2022-12-17T05:40:55;99831.16;;;-8.74;100.00
71573;BME280;59408;51.032;9.410;2022-12-17T05:43:22;99833.59;;;-8.72;100.00
71573;BME280;59408;51.032;9.410;2022-12-17T05:45:48;99831.59;;;-8.70;100.00
71573;BME280;59408;51.032;9.410;2022-12-17T05:48:15;99841.97;;;-8.69;100.00
71573;BME280;59408;51.032;9.410;2022-12-17T05:50:42;99840.34;;;-8.70;100.00
71573;BME280;59408;51.032;9.410;2022-12-17T05:53:10;99845.06;;;-8.65;100.00
71573;BME280;59408;51.032;9.410;2022-12-17T05:55:36;99848.47;;;-8.65;100.00
71573;BME280;59408;51.032;9.410;2022-12-17T05:58:04;99848.28;;;-8.63;100.00
71573;BME280;59408;51.032;9.410;2022-12-17T06:00:31;99858.69;;;-8.62;100.00
71573;BME280;59408;51.032;9.410;2022-12-17T06:02:58;99847.91;;;-8.60;100.00
71573;BME280;59408;51.032;9.410;2022-12-17T06:05:25;99854.03;;;-8.60;100.00
71573;BME280;59408;51.032;9.410;2022-12-17T06:07:51;99855.66;;;-8.59;100.00
71573;BME280;59408;51.032;9.410;2022-12-17T06:10:19;99861.13;;;-8.60;100.00
71573;BME280;59408;51.032;9.410;2022-12-17T06:12:53;99864.16;;;-8.63;100.00
71573;BME280;59408;51.032;9.410;2022-12-17T06:15:20;99861.94;;;-8.66;100.00
71573;BME280;59408;51.032;9.410;2022-12-17T06:17:52;99855.63;;;-8.65;100.00
71573;BME280;59408;51.032;9.410;2022-12-17T06:20:18;99863.94;;;-8.68;100.00
71573;BME280;59408;51.032;9.410;2022-12-17T06:22:45;99871.69;;;-8.67;100.00
71573;BME280;59408;51.032;9.410;2022-12-17T06:25:12;99867.59;;;-8.69;100.00
71573;BME280;59408;51.032;9.410;2022-12-17T06:27:40;99871.50;;;-8.65;100.00
71573;BME280;59408;51.032;9.410;2022-12-17T06:30:07;99874.72;;;-8.63;100.00
71573;BME280;59408;51.032;9.410;2022-12-17T06:32:37;99877.97;;;-8.68;100.00
71573;BME280;59408;51.032;9.410;2022-12-17T06:35:04;99881.44;;;-8.67;100.00
71573;BME280;59408;51.032;9.410;2022-12-17T06:37:31;99883.25;;;-8.68;100.00
71573;BME280;59408;51.032;9.410;2022-12-17T06:39:57;99880.44;;;-8.66;100.00
71573;BME280;59408;51.032;9.410;2022-12-17T06:42:24;99883.91;;;-8.66;100.00
71573;BME280;59408;51.032;9.410;2022-12-17T06:44:52;99883.84;;;-8.72;100.00
71573;BME280;59408;51.032;9.410;2022-12-17T06:47:19;99882.59;;;-8.76;100.00
71573;BME280;59408;51.032;9.410;2022-12-17T06:49:45;99882.41;;;-8.75;100.00
71573;BME280;59408;51.032;9.410;2022-12-17T06:52:12;99879.75;;;-8.75;100.00
71573;BME280;59408;51.032;9.410;2022-12-17T06:54:38;99883.84;;;-8.72;100.00
71573;BME280;59408;51.032;9.410;2022-12-17T06:57:05;99885.44;;;-8.78;100.00
71573;BME280;59408;51.032;9.410;2022-12-17T06:59:31;99890.09;;;-8.80;100.00
71573;BME280;59408;51.032;9.410;2022-12-17T07:01:59;99893.13;;;-8.83;100.00
71573;BME280;59408;51.032;9.410;2022-12-17T07:04:26;99898.19;;;-8.81;100.00
71573;BME280;59408;51.032;9.410;2022-12-17T07:06:53;99895.97;;;-8.84;100.00
71573;BME280;59408;51.032;9.410;2022-12-17T07:09:20;99891.66;;;-8.92;100.00
71573;BME280;59408;51.032;9.410;2022-12-17T07:11:46;99906.88;;;-8.94;100.00
71573;BME280;59408;51.032;9.410;2022-12-17T07:14:13;99908.69;;;-8.95;100.00
71573;BME280;59408;51.032;9.410;2022-12-17T07:16:40;99908.06;;;-8.97;100.00
71573;BME280;59408;51.032;9.410;2022-12-17T07:19:08;99915.63;;;-8.94;100.00
71573;BME280;59408;51.032;9.410;2022-12-17T07:21:34;99933.28;;;-8.94;100.00
71573;BME280;59408;51.032;9.410;2022-12-17T07:24:01;99926.19;;;-8.94;100.00
71573;BME280;59408;51.032;9.410;2022-12-17T07:26:27;99935.31;;;-8.96;100.00
71573;BME280;59408;51.032;9.410;2022-12-17T07:28:54;99937.94;;;-8.96;100.00
71573;BME280;59408;51.032;9.410;2022-12-17T07:31:21;99931.03;;;-8.97;100.00
71573;BME280;59408;51.032;9.410;2022-12-17T07:33:47;99936.69;;;-9.00;100.00
71573;BME280;59408;51.032;9.410;2022-12-17T07:36:15;99943.78;;;-9.01;100.00
71573;BME280;59408;51.032;9.410;2022-12-17T07:38:42;99952.97;;;-8.97;100.00
71573;BME280;59408;51.032;9.410;2022-12-17T07:41:09;99963.56;;;-8.97;100.00
71573;BME280;59408;51.032;9.410;2022-12-17T07:43:35;99962.72;;;-8.97;100.00
71573;BME280;59408;51.032;9.410;2022-12-17T07:46:02;99963.09;;;-9.00;100.00
71573;BME280;59408;51.032;9.410;2022-12-17T07:48:29;99961.50;;;-9.01;100.00
71573;BME280;59408;51.032;9.410;2022-12-17T07:50:56;99959.28;;;-8.98;100.00
71573;BME280;59408;51.032;9.410;2022-12-17T07:53:24;99970.22;;;-9.01;100.00
71573;BME280;59408;51.032;9.410;2022-12-17T07:55:50;99979.34;;;-9.03;100.00
71573;BME280;59408;51.032;9.410;2022-12-17T07:58:17;99985.81;;;-9.06;100.00
71573;BME280;59408;51.032;9.410;2022-12-17T08:00:44;99987.28;;;-9.03;100.00
71573;BME280;59408;51.032;9.410;2022-12-17T08:03:15;99989.97;;;-8.97;100.00
71573;BME280;59408;51.032;9.410;2022-12-17T08:05:41;100001.81;;;-8.93;100.00
71573;BME280;59408;51.032;9.410;2022-12-17T08:08:09;100008.47;;;-8.97;100.00
71573;BME280;59408;51.032;9.410;2022-12-17T08:10:37;100009.06;;;-9.01;100.00
71573;BME280;59408;51.032;9.410;2022-12-17T08:13:04;100005.59;;;-9.02;100.00
71573;BME280;59408;51.032;9.410;2022-12-17T08:15:39;100014.56;;;-9.17;100.00
71573;BME280;59408;51.032;9.410;2022-12-17T08:18:05;100022.25;;;-9.22;100.00
71573;BME280;59408;51.032;9.410;2022-12-17T08:20:32;100020.34;;;-9.28;100.00
71573;BME280;59408;51.032;9.410;2022-12-17T08:23:00;100028.28;;;-9.28;100.00
71573;BME280;59408;51.032;9.410;2022-12-17T08:25:27;100024.94;;;-9.16;100.00
71573;BME280;59408;51.032;9.410;2022-12-17T08:27:56;100026.34;;;-8.99;100.00
71573;BME280;59408;51.032;9.410;2022-12-17T08:30:23;100024.47;;;-9.05;100.00
71573;BME280;59408;51.032;9.410;2022-12-17T08:32:50;100022.16;;;-8.93;100.00
71573;BME280;59408;51.032;9.410;2022-12-17T08:35:17;100022.44;;;-8.81;100.00
71573;BME280;59408;51.032;9.410;2022-12-17T08:37:43;100028.03;;;-8.70;100.00
71573;BME280;59408;51.032;9.410;2022-12-17T08:40:10;100025.22;;;-8.68;100.00
71573;BME280;59408;51.032;9.410;2022-12-17T08:42:37;100032.78;;;-8.65;100.00
71573;BME280;59408;51.032;9.410;2022-12-17T08:45:06;100032.81;;;-8.59;100.00
71573;BME280;59408;51.032;9.410;2022-12-17T08:47:32;100046.06;;;-8.59;100.00
71573;BME280;59408;51.032;9.410;2022-12-17T08:49:59;100044.47;;;-8.53;100.00
71573;BME280;59408;51.032;9.410;2022-12-17T08:52:25;100050.25;;;-8.43;100.00
71573;BME280;59408;51.032;9.410;2022-12-17T08:54:52;100041.75;;;-8.38;100.00
71573;BME280;59408;51.032;9.410;2022-12-17T08:57:19;100050.63;;;-8.46;100.00
71573;BME280;59408;51.032;9.410;2022-12-17T08:59:57;100051.13;;;-8.36;100.00
71573;BME280;59408;51.032;9.410;2022-12-17T09:02:26;100056.03;;;-8.33;100.00
71573;BME280;59408;51.032;9.410;2022-12-17T09:04:52;100056.22;;;-8.34;100.00
71573;BME280;59408;51.032;9.410;2022-12-17T09:07:19;100052.41;;;-8.25;100.00
71573;BME280;59408;51.032;9.410;2022-12-17T09:09:45;100047.81;;;-8.17;100.00
71573;BME280;59408;51.032;9.410;2022-12-17T09:12:12;100051.53;;;-8.11;100.00
71573;BME280;59408;51.032;9.410;2022-12-17T09:14:39;100058.66;;;-8.11;100.00
71573;BME280;59408;51.032;9.410;2022-12-17T09:17:05;100056.19;;;-8.13;100.00
71573;BME280;59408;51.032;9.410;2022-12-17T09:19:33;100057.69;;;-8.04;100.00
71573;BME280;59408;51.032;9.410;2022-12-17T09:22:00;100062.78;;;-8.02;100.00
71573;BME280;59408;51.032;9.410;2022-12-17T09:24:27;100057.69;;;-8.04;100.00
71573;BME280;59408;51.032;9.410;2022-12-17T09:26:53;100062.66;;;-7.88;100.00
71573;BME280;59408;51.032;9.410;2022-12-17T09:29:20;100061.84;;;-7.88;100.00
71573;BME280;59408;51.032;9.410;2022-12-17T09:31:46;100064.38;;;-7.73;100.00
71573;BME280;59408;51.032;9.410;2022-12-17T09:34:13;100072.94;;;-7.71;100.00
71573;BME280;59408;51.032;9.410;2022-12-17T09:36:41;100076.03;;;-7.68;100.00
71573;BME280;59408;51.032;9.410;2022-12-17T09:39:16;100072.19;;;-7.65;100.00
71573;BME280;59408;51.032;9.410;2022-12-17T09:41:48;100067.56;;;-7.50;100.00
71573;BME280;59408;51.032;9.410;2022-12-17T09:44:21;100062.28;;;-7.44;100.00
71573;BME280;59408;51.032;9.410;2022-12-17T09:46:53;100064.13;;;-7.44;100.00
71573;BME280;59408;51.032;9.410;2022-12-17T09:49:25;100073.38;;;-7.27;100.00
71573;BME280;59408;51.032;9.410;2022-12-17T09:51:54;100081.13;;;-7.19;100.00
71573;BME280;59408;51.032;9.410;2022-12-17T09:54:25;100082.59;;;-7.10;100.00
71573;BME280;59408;51.032;9.410;2022-12-17T09:56:55;100076.28;;;-7.15;100.00
71573;BME280;59408;51.032;9.410;2022-12-17T09:59:27;100087.47;;;-7.20;100.00
71573;BME280;59408;51.032;9.410;2022-12-17T10:01:53;100080.19;;;-7.11;100.00
71573;BME280;59408;51.032;9.410;2022-12-17T10:04:35;100086.22;;;-7.24;100.00
71573;BME280;59408;51.032;9.410;2022-12-17T10:07:10;100078.66;;;-7.27;100.00
71573;BME280;59408;51.032;9.410;2022-12-17T10:09:40;100084.50;;;-7.45;100.00
71573;BME280;59408;51.032;9.410;2022-12-17T10:12:11;100082.13;;;-7.33;100.00
71573;BME280;59408;51.032;9.410;2022-12-17T10:14:38;100081.38;;;-7.20;100.00
71573;BME280;59408;51.032;9.410;2022-12-17T10:17:10;100080.19;;;-7.11;100.00
71573;BME280;59408;51.032;9.410;2022-12-17T10:19:40;100087.06;;;-7.17;100.00
71573;BME280;59408;51.032;9.410;2022-12-17T10:22:11;100081.75;;;-7.23;100.00
71573;BME280;59408;51.032;9.410;2022-12-17T10:24:44;100083.03;;;-7.06;100.00
71573;BME280;59408;51.032;9.410;2022-12-17T10:27:16;100084.72;;;-6.85;100.00
71573;BME280;59408;51.032;9.410;2022-12-17T10:29:43;100083.75;;;-6.64;100.00
71573;BME280;59408;51.032;9.410;2022-12-17T10:32:18;100090.25;;;-6.54;98.72
71573;BME280;59408;51.032;9.410;2022-12-17T10:34:45;100087.19;;;-6.64;98.58
71573;BME280;59408;51.032;9.410;2022-12-17T10:37:18;100090.47;;;-6.62;98.90
71573;BME280;59408;51.032;9.410;2022-12-17T10:39:53;100084.97;;;-6.54;99.14
71573;BME280;59408;51.032;9.410;2022-12-17T10:42:22;100089.69;;;-6.49;98.14
71573;BME280;59408;51.032;9.410;2022-12-17T10:44:49;100089.25;;;-6.53;97.38
71573;BME280;59408;51.032;9.410;2022-12-17T10:47:17;100099.03;;;-6.53;97.11
71573;BME280;59408;51.032;9.410;2022-12-17T10:49:44;100096.59;;;-6.55;97.00
71573;BME280;59408;51.032;9.410;2022-12-17T10:52:22;100099.06;;;-6.47;97.36
71573;BME280;59408;51.032;9.410;2022-12-17T10:54:57;100098.25;;;-6.41;96.47
71573;BME280;59408;51.032;9.410;2022-12-17T10:57:33;100095.81;;;-6.36;96.56
71573;BME280;59408;51.032;9.410;2022-12-17T11:00:01;100087.22;;;-6.44;96.69
71573;BME280;59408;51.032;9.410;2022-12-17T11:02:28;100081.31;;;-6.33;96.54
71573;BME280;59408;51.032;9.410;2022-12-17T11:04:57;100087.19;;;-6.64;97.05
71573;BME280;59408;51.032;9.410;2022-12-17T11:07:28;100094.56;;;-6.53;97.05
71573;BME280;59408;51.032;9.410;2022-12-17T11:09:57;100098.84;;;-6.45;96.84
71573;BME280;59408;51.032;9.410;2022-12-17T11:12:42;100093.16;;;-6.36;97.48
71573;BME280;59408;51.032;9.410;2022-12-17T11:15:17;100087.25;;;-6.31;96.18
71573;BME280;59408;51.032;9.410;2022-12-17T11:17:45;100091.34;;;-6.29;97.21
71573;BME280;59408;51.032;9.410;2022-12-17T11:20:21;100090.50;;;-6.22;97.57
71573;BME280;59408;51.032;9.410;2022-12-17T11:22:52;100098.88;;;-6.06;97.74
71573;BME280;59408;51.032;9.410;2022-12-17T11:25:28;100097.66;;;-5.97;97.17
71573;BME280;59408;51.032;9.410;2022-12-17T11:28:02;100093.56;;;-6.06;95.99
71573;BME280;59408;51.032;9.410;2022-12-17T11:30:32;100081.50;;;-6.08;96.28
71573;BME280;59408;51.032;9.410;2022-12-17T11:33:11;100085.00;;;-6.08;96.48
71573;BME280;59408;51.032;9.410;2022-12-17T11:35:48;100092.94;;;-5.88;97.08
71573;BME280;59408;51.032;9.410;2022-12-17T11:38:24;100085.19;;;-5.76;96.16
71573;BME280;59408;51.032;9.410;2022-12-17T11:40:54;100091.13;;;-5.94;95.79
71573;BME280;59408;51.032;9.410;2022-12-17T11:43:34;100095.41;;;-5.93;96.23
71573;BME280;59408;51.032;9.410;2022-12-17T11:46:11;100094.00;;;-6.02;96.29
71573;BME280;59408;51.032;9.410;2022-12-17T11:48:45;100095.81;;;-6.03;96.92
71573;BME280;59408;51.032;9.410;2022-12-17T11:51:17;100100.31;;;-6.03;96.21
71573;BME280;59408;51.032;9.410;2022-12-17T11:53:53;100095.00;;;-6.03;96.49
71573;BME280;59408;51.032;9.410;2022-12-17T11:56:26;100103.78;;;-6.09;97.48
71573;BME280;59408;51.032;9.410;2022-12-17T11:58:58;100098.06;;;-6.13;98.13
71573;BME280;59408;51.032;9.410;2022-12-17T12:01:34;100097.25;;;-5.94;98.48
71573;BME280;59408;51.032;9.410;2022-12-17T12:04:16;100108.69;;;-5.86;97.42
71573;BME280;59408;51.032;9.410;2022-12-17T12:06:51;100098.06;;;-6.00;97.63
71573;BME280;59408;51.032;9.410;2022-12-17T12:09:27;100095.81;;;-5.90;97.44
71573;BME280;59408;51.032;9.410;2022-12-17T12:12:04;100095.00;;;-5.97;98.23
71573;BME280;59408;51.032;9.410;2022-12-17T12:14:37;100096.44;;;-6.14;99.12
71573;BME280;59408;51.032;9.410;2022-12-17T12:17:22;100096.84;;;-6.23;99.79
71573;BME280;59408;51.032;9.410;2022-12-17T12:19:58;100096.22;;;-6.25;99.97
71573;BME280;59408;51.032;9.410;2022-12-17T12:22:31;100095.59;;;-6.41;100.00
71573;BME280;59408;51.032;9.410;2022-12-17T12:25:21;100100.09;;;-6.35;100.00
71573;BME280;59408;51.032;9.410;2022-12-17T12:27:55;100097.25;;;-6.46;100.00
71573;BME280;59408;51.032;9.410;2022-12-17T12:30:29;100102.78;;;-6.28;100.00
71573;BME280;59408;51.032;9.410;2022-12-17T12:33:03;100101.34;;;-6.04;100.00
71573;BME280;59408;51.032;9.410;2022-12-17T12:35:37;100105.84;;;-6.11;100.00
71573;BME280;59408;51.032;9.410;2022-12-17T12:38:04;100100.28;;;-6.36;100.00
71573;BME280;59408;51.032;9.410;2022-12-17T12:40:39;100097.03;;;-6.25;100.00
71573;BME280;59408;51.032;9.410;2022-12-17T12:43:18;100097.25;;;-6.13;100.00
71573;BME280;59408;51.032;9.410;2022-12-17T12:45:49;100106.63;;;-6.17;100.00
71573;BME280;59408;51.032;9.410;2022-12-17T12:48:28;100107.25;;;-6.29;100.00
71573;BME280;59408;51.032;9.410;2022-12-17T12:51:02;100104.81;;;-6.17;100.00
71573;BME280;59408;51.032;9.410;2022-12-17T12:53:32;100112.38;;;-6.20;100.00